Terminal Aerodrome Forecast
Issued by NWS Dodge City, KS

Home | Current Version | Previous Version | Graphics & Text | Print | Product List | Glossary Off
Versions: 1 2 3 4 5 6 7 8 9 10 11 12 13 14 15 16 17 18 19 20 21 22 23 24 25 26 27 28 29 30 31 32

000
FTUS43 KDDC 260325 AAC
TAFDDC
TAF AMD
KDDC 260325Z 2603/2624 02020G35KT 2SM +TSRA BKN025CB
     FM260500 18012KT P6SM VCTS BKN050CB
     FM260900 16012KT P6SM SCT250=

USA.gov is the U.S. government's official web portal to all federal, state and local government web resources and services.